This is the latest recevied weather packets stored in our database for station/object WK7G. If no packets are shown the sender has not sent any weather packets the latest 1 day(s).
| Time | Temp. | Humidity | Pressure | Rain* | Wind** | Luminosity | Snow |
|---|---|---|---|---|---|---|---|
| 1778005891 | 12.22° C | 37% | 1003.8 hPa | 0 mm | 1.34 m/s, 283° | 893 W/m² | - |
| 1778005587 | 12.22° C | 35% | 1004 hPa | 0 mm | 3.13 m/s, 320° | 864 W/m² | - |
| 1778005284 | 12.22° C | 33% | 1003.9 hPa | 0 mm | 1.79 m/s, 220° | 883 W/m² | - |
| 1778004980 | 12.22° C | 36% | 1004 hPa | 0 mm | 3.13 m/s, 308° | 874 W/m² | - |
| 1778004678 | 12.22° C | 34% | 1004 hPa | 0 mm | 2.68 m/s, 302° | 856 W/m² | - |
| 1778004374 | 11.67° C | 35% | 1004 hPa | 0 mm | 1.79 m/s, 10° | 884 W/m² | - |
| 1778004072 | 11.67° C | 34% | 1003.7 hPa | 0 mm | 3.58 m/s, 334° | 885 W/m² | - |
| 1778003767 | 12.22° C | 37% | 1004 hPa | 0 mm | 1.34 m/s, 326° | 890 W/m² | - |
| 1778003464 | 12.22° C | 36% | 1003.8 hPa | 0 mm | 0.89 m/s, 309° | 895 W/m² | - |
| 1778003160 | 11.67° C | 35% | 1003.8 hPa | 0 mm | 4.47 m/s, 239° | 885 W/m² | - |
| 1778002856 | 11.67° C | 35% | 1003.9 hPa | 0 mm | 3.58 m/s, 316° | 881 W/m² | - |
| 1778002553 | 11.11° C | 33% | 1003.9 hPa | 0 mm | 4.47 m/s, 325° | 861 W/m² | - |
| 1778002250 | 11.67° C | 34% | 1004 hPa | 0 mm | 2.68 m/s, 245° | 865 W/m² | - |
| 1778001948 | 11.67° C | 36% | 1003.8 hPa | 0 mm | 3.13 m/s, 282° | 893 W/m² | - |
| 1778001644 | 11.67° C | 34% | 1004 hPa | 0 mm | 2.68 m/s, 357° | 887 W/m² | - |
| 1778001339 | 11.67° C | 37% | 1004.3 hPa | 0 mm | 2.24 m/s, 242° | 897 W/m² | - |
| 1778001036 | 11.67° C | 39% | 1004.3 hPa | 0 mm | 2.24 m/s, 267° | 875 W/m² | - |
| 1778000733 | 11.11° C | 38% | 1004.5 hPa | 0 mm | 2.68 m/s, 312° | 871 W/m² | - |
| 1778000429 | 11.11° C | 42% | 1004 hPa | 0 mm | 2.68 m/s, 5° | 865 W/m² | - |
| 1778000125 | 11.11° C | 39% | 1004.5 hPa | 0 mm | 0.89 m/s, 276° | 867 W/m² | - |
| 1777999820 | 11.11° C | 41% | 1004.2 hPa | 0 mm | 3.58 m/s, 351° | 869 W/m² | - |
| 1777999517 | 11.11° C | 45% | 1004.5 hPa | 0 mm | 1.79 m/s, 86° | 849 W/m² | - |
| 1777999215 | 10.56° C | 46% | 1004.4 hPa | 0 mm | 2.24 m/s, 358° | 849 W/m² | - |
| 1777998913 | 10.56° C | 46% | 1004.5 hPa | 0 mm | 1.34 m/s, 308° | 842 W/m² | - |
| 1777998609 | 10° C | 51% | 1004.4 hPa | 0 mm | 2.24 m/s, 4° | 818 W/m² | - |
* Rain latest hour (hover to see other rain measurements)
** Current wind speed in m/s (hover to see current wind gust speed)